createdAt,value
2019-03-24T00:01:25.469Z,26.86
2019-03-24T00:03:54.017Z,26.78
2019-03-24T00:06:22.301Z,26.99
2019-03-24T00:08:52.270Z,26.45
2019-03-24T00:11:20.550Z,26.12
2019-03-24T00:13:48.866Z,26.63
2019-03-24T00:16:17.137Z,27.17
2019-03-24T00:18:45.414Z,26.79
2019-03-24T00:21:13.691Z,26.96
2019-03-24T00:23:41.965Z,26.50
2019-03-24T00:26:10.266Z,27.16
2019-03-24T00:28:38.528Z,27.26
2019-03-24T00:31:06.854Z,26.05
2019-03-24T00:33:35.131Z,26.69
2019-03-24T00:36:03.392Z,26.27
2019-03-24T00:38:31.690Z,26.42
2019-03-24T00:40:59.944Z,25.85
2019-03-24T00:43:29.107Z,25.60
2019-03-24T00:45:57.381Z,24.76
2019-03-24T00:48:25.648Z,25.48
2019-03-24T00:50:54.013Z,26.14
2019-03-24T00:53:22.296Z,26.57
2019-03-24T00:55:50.637Z,25.56
2019-03-24T00:58:18.986Z,25.93
2019-03-24T01:00:49.295Z,26.90
2019-03-24T01:03:18.160Z,26.91
2019-03-24T01:05:46.865Z,26.97
2019-03-24T01:08:15.660Z,26.15
2019-03-24T01:10:43.948Z,27.02
2019-03-24T01:13:13.644Z,26.81
2019-03-24T01:15:47.763Z,27.08
2019-03-24T01:18:12.875Z,27.06
2019-03-24T01:20:41.153Z,26.90
2019-03-24T01:23:09.454Z,26.70
2019-03-24T01:25:37.842Z,25.97
2019-03-24T01:28:06.191Z,26.43
2019-03-24T01:30:34.520Z,26.78
2019-03-24T01:33:02.804Z,26.79
2019-03-24T01:35:31.102Z,25.68
2019-03-24T01:37:59.377Z,27.15
2019-03-24T01:40:27.636Z,25.45
2019-03-24T01:42:56.820Z,26.55
2019-03-24T01:45:25.092Z,26.25
2019-03-24T01:47:53.353Z,26.53
2019-03-24T01:50:21.633Z,26.06
2019-03-24T01:52:49.922Z,26.35
2019-03-24T01:55:18.197Z,26.55
2019-03-24T01:57:46.465Z,26.93
2019-03-24T02:00:15.471Z,27.03
2019-03-24T02:02:43.748Z,23.77
2019-03-24T02:05:12.127Z,26.34
2019-03-24T02:07:40.372Z,26.54
2019-03-24T02:10:09.663Z,26.46
2019-03-24T02:12:38.045Z,26.66
2019-03-24T02:15:07.945Z,26.68
2019-03-24T02:17:36.207Z,26.43
2019-03-24T02:20:06.007Z,25.98
2019-03-24T02:22:34.289Z,25.73
2019-03-24T02:25:02.629Z,25.57
2019-03-24T02:27:30.919Z,25.52
2019-03-24T02:29:59.189Z,25.18
2019-03-24T02:32:27.469Z,25.04
2019-03-24T02:34:55.735Z,25.94
2019-03-24T02:37:24.000Z,26.16
2019-03-24T02:39:52.332Z,24.94
2019-03-24T02:42:20.605Z,25.50
2019-03-24T02:44:48.893Z,25.98
2019-03-24T02:47:17.174Z,26.07
2019-03-24T02:49:45.502Z,25.93
2019-03-24T02:52:13.759Z,26.06
2019-03-24T02:54:42.022Z,25.64
2019-03-24T02:57:10.301Z,26.03
2019-03-24T02:59:38.593Z,25.41
2019-03-24T03:02:06.922Z,26.21
2019-03-24T03:04:35.199Z,26.48
2019-03-24T03:07:03.468Z,26.64
2019-03-24T03:09:31.750Z,25.77
2019-03-24T03:12:00.094Z,25.78
2019-03-24T03:14:28.376Z,26.30
2019-03-24T03:16:56.713Z,26.55
2019-03-24T03:19:24.993Z,26.15
2019-03-24T03:21:53.279Z,26.04
2019-03-24T03:24:21.546Z,26.26
2019-03-24T03:26:49.843Z,25.73
2019-03-24T03:29:18.100Z,26.01
2019-03-24T03:31:46.727Z,26.18
2019-03-24T03:34:14.966Z,26.67
2019-03-24T03:36:43.318Z,25.84
2019-03-24T03:39:11.634Z,25.59
2019-03-24T03:41:39.969Z,25.86
2019-03-24T03:44:08.230Z,25.36
2019-03-24T03:46:36.529Z,25.58
2019-03-24T03:49:04.863Z,24.89
2019-03-24T03:51:33.223Z,26.22
2019-03-24T03:54:01.500Z,26.72
2019-03-24T03:56:29.806Z,25.95
2019-03-24T03:58:58.056Z,26.22
2019-03-24T04:01:26.321Z,26.44
2019-03-24T04:03:54.621Z,26.01
2019-03-24T04:06:22.882Z,25.71
2019-03-24T04:08:51.167Z,26.06
2019-03-24T04:11:19.431Z,26.06
2019-03-24T04:13:47.723Z,25.54
2019-03-24T04:16:16.007Z,25.72
2019-03-24T04:18:44.347Z,25.40
2019-03-24T04:21:12.693Z,25.80
2019-03-24T04:23:40.960Z,26.09
2019-03-24T04:26:09.272Z,26.00
2019-03-24T04:28:37.523Z,25.69
2019-03-24T04:31:05.885Z,25.97
2019-03-24T04:33:34.162Z,25.45
2019-03-24T04:36:02.439Z,25.26
2019-03-24T04:38:30.724Z,26.28
2019-03-24T04:40:58.991Z,25.72
2019-03-24T04:43:27.277Z,25.92
2019-03-24T04:45:56.337Z,26.04
2019-03-24T04:48:24.613Z,25.40
2019-03-24T04:50:52.892Z,26.00
2019-03-24T04:53:21.154Z,25.50
2019-03-24T04:55:49.412Z,25.83
2019-03-24T04:58:17.678Z,25.13
2019-03-24T05:00:46.031Z,25.25
2019-03-24T05:03:15.090Z,25.84
2019-03-24T05:05:43.371Z,25.64
2019-03-24T05:08:13.420Z,25.28
2019-03-24T05:10:41.912Z,24.97
2019-03-24T05:13:10.195Z,25.15
2019-03-24T05:15:38.546Z,24.99
2019-03-24T05:18:06.814Z,24.83
2019-03-24T05:20:35.188Z,25.23
2019-03-24T05:23:03.469Z,24.16
2019-03-24T05:25:31.755Z,25.22
2019-03-24T05:28:00.038Z,24.84
2019-03-24T05:30:28.345Z,24.81
2019-03-24T05:32:56.630Z,25.07
2019-03-24T05:35:24.910Z,24.94
2019-03-24T05:37:54.840Z,24.31
2019-03-24T05:40:23.105Z,24.74
2019-03-24T05:42:51.384Z,24.89
2019-03-24T05:45:19.648Z,25.39
2019-03-24T05:47:47.931Z,24.39
2019-03-24T05:50:16.228Z,25.11
2019-03-24T05:52:44.545Z,25.48
2019-03-24T05:55:12.897Z,25.28
2019-03-24T05:57:41.185Z,25.06
2019-03-24T06:00:09.770Z,24.24
2019-03-24T06:02:38.145Z,24.78
2019-03-24T06:05:07.346Z,25.09
2019-03-24T06:07:35.641Z,24.86
2019-03-24T06:10:05.834Z,25.76
2019-03-24T06:12:34.106Z,25.17
2019-03-24T06:15:02.377Z,25.08
2019-03-24T06:17:30.646Z,25.52
2019-03-24T06:19:58.929Z,25.89
2019-03-24T06:22:27.194Z,24.80
2019-03-24T06:24:55.450Z,25.56
2019-03-24T06:27:23.736Z,25.37
2019-03-24T06:29:52.004Z,25.14
2019-03-24T06:32:20.275Z,25.44
2019-03-24T06:34:48.532Z,24.95
2019-03-24T06:37:16.811Z,25.49
2019-03-24T06:39:45.102Z,25.21
2019-03-24T06:42:13.414Z,24.51
2019-03-24T06:44:41.696Z,24.98
2019-03-24T06:47:09.959Z,25.60
2019-03-24T06:49:38.242Z,25.13
2019-03-24T06:52:06.520Z,25.15
2019-03-24T06:54:34.794Z,25.01
2019-03-24T06:57:03.129Z,25.18
2019-03-24T06:59:31.408Z,25.89
2019-03-24T07:01:59.671Z,24.35
2019-03-24T07:04:27.961Z,25.71
2019-03-24T07:06:57.875Z,25.73
2019-03-24T07:09:26.173Z,25.76
2019-03-24T07:11:54.474Z,25.14
2019-03-24T07:14:22.746Z,25.71
2019-03-24T07:16:51.037Z,25.21
2019-03-24T07:19:19.304Z,25.67
2019-03-24T07:21:47.592Z,26.18
2019-03-24T07:24:15.859Z,25.36
2019-03-24T07:26:44.193Z,25.57
2019-03-24T07:29:12.467Z,25.52
2019-03-24T07:31:40.763Z,25.47
2019-03-24T07:34:09.140Z,25.42
2019-03-24T07:36:37.417Z,25.17
2019-03-24T07:39:07.618Z,25.86
2019-03-24T07:41:35.913Z,25.56
2019-03-24T07:44:04.250Z,26.76
2019-03-24T07:46:32.533Z,26.47
2019-03-24T07:49:00.880Z,24.81
2019-03-24T07:51:29.174Z,27.03
2019-03-24T07:53:57.442Z,27.07
2019-03-24T07:56:25.710Z,26.90
2019-03-24T07:58:53.987Z,26.28
2019-03-24T08:01:22.257Z,27.33
2019-03-24T08:03:50.561Z,27.13
2019-03-24T08:06:18.815Z,25.86
2019-03-24T08:08:47.101Z,26.79
2019-03-24T08:11:15.373Z,25.55
2019-03-24T08:13:53.232Z,26.62
2019-03-24T08:16:13.649Z,26.99
2019-03-24T08:18:41.930Z,27.16
2019-03-24T08:21:10.225Z,26.97
2019-03-24T08:23:38.496Z,27.37
2019-03-24T08:26:06.779Z,26.85
2019-03-24T08:28:35.050Z,26.68
2019-03-24T08:31:03.315Z,27.19
2019-03-24T08:33:31.570Z,27.19
2019-03-24T08:35:59.844Z,27.70
2019-03-24T08:38:28.110Z,28.31
2019-03-24T08:40:56.409Z,28.72
2019-03-24T08:43:24.689Z,27.68
2019-03-24T08:45:52.958Z,28.08
2019-03-24T08:48:21.212Z,28.27
2019-03-24T08:50:49.490Z,27.59
2019-03-24T08:53:17.776Z,27.53
2019-03-24T08:55:46.058Z,27.58
2019-03-24T08:58:14.337Z,28.04
2019-03-24T09:00:42.602Z,28.34
2019-03-24T09:03:10.893Z,28.72
2019-03-24T09:05:39.181Z,28.52
2019-03-24T09:08:07.495Z,28.89
2019-03-24T09:10:35.787Z,29.22
2019-03-24T09:13:04.155Z,29.26
2019-03-24T09:15:32.446Z,28.82
2019-03-24T09:18:00.698Z,29.51
2019-03-24T09:20:29.001Z,29.64
2019-03-24T09:22:57.283Z,28.78
2019-03-24T09:25:25.621Z,28.91
2019-03-24T09:27:53.912Z,28.66
2019-03-24T09:30:36.111Z,29.80
2019-03-24T09:33:05.240Z,30.72
2019-03-24T09:35:33.538Z,30.52
2019-03-24T09:38:01.866Z,29.45
2019-03-24T09:40:32.082Z,29.41
2019-03-24T09:43:00.490Z,30.08
2019-03-24T09:45:30.027Z,30.29
2019-03-24T09:47:58.669Z,30.53
2019-03-24T09:50:27.014Z,30.07
2019-03-24T09:52:55.334Z,30.73
2019-03-24T09:55:23.649Z,30.94
2019-03-24T09:57:51.919Z,31.21
2019-03-24T10:00:20.199Z,30.51
2019-03-24T10:02:48.506Z,31.19
2019-03-24T10:05:16.751Z,31.36
2019-03-24T10:07:45.019Z,31.29
2019-03-24T10:10:13.302Z,31.13
2019-03-24T10:12:41.645Z,31.53
2019-03-24T10:15:10.110Z,31.09
2019-03-24T10:17:38.448Z,31.08
2019-03-24T10:20:06.988Z,30.23
2019-03-24T10:22:35.270Z,29.00
2019-03-24T10:25:04.877Z,29.56
2019-03-24T10:27:33.163Z,30.46
2019-03-24T10:30:01.456Z,31.98
2019-03-24T10:32:29.739Z,31.39
2019-03-24T10:34:58.010Z,31.60
2019-03-24T10:37:26.310Z,31.12
2019-03-24T10:39:54.583Z,31.73
2019-03-24T10:42:22.959Z,32.18
2019-03-24T10:44:51.244Z,32.97
2019-03-24T10:47:19.534Z,32.79
2019-03-24T10:49:47.798Z,33.75
2019-03-24T10:52:16.070Z,33.52
2019-03-24T10:54:44.339Z,32.75
2019-03-24T10:57:12.621Z,33.05
2019-03-24T10:59:40.955Z,33.03
2019-03-24T11:02:09.269Z,33.14
2019-03-24T11:04:37.561Z,33.46
2019-03-24T11:07:05.843Z,33.01
2019-03-24T11:09:34.143Z,33.97
2019-03-24T11:12:02.435Z,31.81
2019-03-24T11:14:30.727Z,33.73
2019-03-24T11:16:58.989Z,33.64
2019-03-24T11:19:35.350Z,33.91
2019-03-24T11:21:57.275Z,33.18
2019-03-24T11:24:25.582Z,34.13
2019-03-24T11:26:55.613Z,34.49
2019-03-24T11:29:23.902Z,34.65
2019-03-24T11:31:52.164Z,35.13
2019-03-24T11:34:20.469Z,35.17
2019-03-24T11:36:48.746Z,34.77
2019-03-24T11:39:16.998Z,34.09
2019-03-24T11:41:46.227Z,34.94
2019-03-24T11:44:14.507Z,35.14
2019-03-24T11:46:42.816Z,35.51
2019-03-24T11:49:16.142Z,36.45
2019-03-24T11:51:44.580Z,36.68
2019-03-24T11:54:12.886Z,36.39
2019-03-24T11:56:41.172Z,36.05
2019-03-24T11:59:09.441Z,33.25
2019-03-24T12:01:38.591Z,34.67
2019-03-24T12:04:07.157Z,33.49
2019-03-24T12:06:35.494Z,33.87
2019-03-24T12:09:05.049Z,34.03
2019-03-24T12:11:33.318Z,34.04
2019-03-24T12:14:01.635Z,31.68
2019-03-24T12:16:29.928Z,30.76
2019-03-24T12:18:58.234Z,32.46
2019-03-24T12:21:26.544Z,32.36
2019-03-24T12:23:54.802Z,32.73
2019-03-24T12:26:23.122Z,32.97
2019-03-24T12:28:51.408Z,31.13
2019-03-24T12:31:19.703Z,31.07
2019-03-24T12:33:48.003Z,31.25
2019-03-24T12:36:16.317Z,31.39
2019-03-24T12:38:44.601Z,31.81
2019-03-24T12:41:14.796Z,30.38
2019-03-24T12:43:43.097Z,30.75
2019-03-24T12:46:11.391Z,29.91
2019-03-24T12:48:39.649Z,30.82
2019-03-24T12:51:07.946Z,30.63
2019-03-24T12:53:36.217Z,30.71
2019-03-24T12:56:04.511Z,30.72
2019-03-24T12:58:32.776Z,29.78
2019-03-24T13:01:01.165Z,30.30
2019-03-24T13:03:29.469Z,30.02
2019-03-24T13:05:57.754Z,29.23
2019-03-24T13:08:26.064Z,30.19
2019-03-24T13:10:54.344Z,31.27
2019-03-24T13:13:22.638Z,31.05
2019-03-24T13:15:50.929Z,32.38
2019-03-24T13:18:19.195Z,32.70
2019-03-24T13:20:47.481Z,33.56
2019-03-24T13:23:15.794Z,30.09
2019-03-24T13:25:44.063Z,29.68
2019-03-24T13:28:12.366Z,29.37
2019-03-24T13:30:40.616Z,28.73
2019-03-24T13:33:08.886Z,29.23
2019-03-24T13:35:37.179Z,30.20
2019-03-24T13:38:05.459Z,30.07
2019-03-24T13:40:33.742Z,31.18
2019-03-24T13:43:02.039Z,30.18
2019-03-24T13:45:30.394Z,29.80
2019-03-24T13:47:58.714Z,31.31
2019-03-24T13:50:31.479Z,31.42
2019-03-24T13:52:58.191Z,30.24
2019-03-24T13:55:26.753Z,30.67
2019-03-24T13:57:55.275Z,31.34
2019-03-24T14:00:23.878Z,31.26
2019-03-24T14:02:52.166Z,31.56
2019-03-24T14:05:26.043Z,32.05
2019-03-24T14:07:54.299Z,31.64
2019-03-24T14:10:22.597Z,34.80
2019-03-24T14:12:50.866Z,35.94
2019-03-24T14:15:19.160Z,35.45
2019-03-24T14:17:47.426Z,32.84
2019-03-24T14:20:15.800Z,30.45
2019-03-24T14:22:44.094Z,30.31
2019-03-24T14:25:12.501Z,31.01
2019-03-24T14:27:40.788Z,32.25
2019-03-24T14:30:09.720Z,32.49
2019-03-24T14:32:38.006Z,31.06
2019-03-24T14:35:09.709Z,33.36
2019-03-24T14:37:38.949Z,34.74
2019-03-24T14:40:07.971Z,35.60
2019-03-24T14:42:36.361Z,35.20
2019-03-24T14:45:06.778Z,34.02
2019-03-24T14:47:35.067Z,35.96
2019-03-24T14:50:03.830Z,36.64
2019-03-24T14:52:32.166Z,37.43
2019-03-24T14:55:00.452Z,34.31
2019-03-24T14:57:28.767Z,33.09
2019-03-24T14:59:57.098Z,34.12
2019-03-24T15:02:25.387Z,30.49
2019-03-24T15:04:53.687Z,33.45
2019-03-24T15:07:23.532Z,34.30
2019-03-24T15:09:51.757Z,33.49
2019-03-24T15:12:20.038Z,33.20
2019-03-24T15:14:48.335Z,32.71
2019-03-24T15:17:16.620Z,32.48
2019-03-24T15:19:44.906Z,31.65
2019-03-24T15:22:13.285Z,30.43
2019-03-24T15:24:41.555Z,29.68
2019-03-24T15:27:09.861Z,30.90
2019-03-24T15:29:38.131Z,30.09
2019-03-24T15:32:06.397Z,29.84
2019-03-24T15:34:34.683Z,31.16
2019-03-24T15:37:02.984Z,31.34
2019-03-24T15:39:31.307Z,31.08
2019-03-24T15:41:59.697Z,30.51
2019-03-24T15:44:28.043Z,31.03
2019-03-24T15:46:56.333Z,31.08
2019-03-24T15:49:24.658Z,30.44
2019-03-24T15:51:52.892Z,30.35
2019-03-24T15:54:21.216Z,29.18
2019-03-24T15:56:49.496Z,28.71
2019-03-24T15:59:17.838Z,28.72
2019-03-24T16:01:46.146Z,29.66
2019-03-24T16:04:14.416Z,29.45
2019-03-24T16:06:47.312Z,28.08
2019-03-24T16:09:19.597Z,28.53
2019-03-24T16:11:47.960Z,29.53
2019-03-24T16:14:16.545Z,28.08
2019-03-24T16:16:44.868Z,29.14
2019-03-24T16:19:13.189Z,28.91
2019-03-24T16:21:41.558Z,29.15
2019-03-24T16:24:09.825Z,28.13
2019-03-24T16:26:38.124Z,27.96
2019-03-24T16:29:06.435Z,28.71
2019-03-24T16:31:34.743Z,28.31
2019-03-24T16:34:05.401Z,28.67
2019-03-24T16:36:33.050Z,28.64
2019-03-24T16:39:03.838Z,29.43
2019-03-24T16:41:32.425Z,30.20
2019-03-24T16:44:00.693Z,27.94
2019-03-24T16:46:29.081Z,28.17
2019-03-24T16:48:57.355Z,27.73
2019-03-24T16:51:25.619Z,27.54
2019-03-24T16:53:53.925Z,27.44
2019-03-24T16:56:22.205Z,28.23
2019-03-24T16:58:50.499Z,27.13
2019-03-24T17:01:18.796Z,27.69
2019-03-24T17:03:47.345Z,28.24
2019-03-24T17:06:15.626Z,27.50
2019-03-24T17:08:43.899Z,27.98
2019-03-24T17:11:12.172Z,26.92
2019-03-24T17:13:40.455Z,27.39
2019-03-24T17:16:08.732Z,26.33
2019-03-24T17:18:38.638Z,26.61
2019-03-24T17:21:06.924Z,26.54
2019-03-24T17:23:35.212Z,27.81
2019-03-24T17:26:03.521Z,28.57
2019-03-24T17:28:31.859Z,27.75
2019-03-24T17:31:00.135Z,28.81
2019-03-24T17:33:28.506Z,27.19
2019-03-24T17:35:56.799Z,27.80
2019-03-24T17:38:25.071Z,28.31
2019-03-24T17:40:53.342Z,27.74
2019-03-24T17:43:21.696Z,27.83
2019-03-24T17:45:49.985Z,28.39
2019-03-24T17:48:18.278Z,27.37
2019-03-24T17:50:46.562Z,28.32
2019-03-24T17:53:14.837Z,27.35
2019-03-24T17:55:43.140Z,27.10
2019-03-24T17:58:11.405Z,26.33
2019-03-24T18:00:42.836Z,26.68
2019-03-24T18:03:11.483Z,26.38
2019-03-24T18:05:39.982Z,27.63
2019-03-24T18:08:08.347Z,27.47
2019-03-24T18:10:36.623Z,26.70
2019-03-24T18:13:04.971Z,26.48
2019-03-24T18:15:33.326Z,26.18
2019-03-24T18:18:01.590Z,26.40
2019-03-24T18:20:32.114Z,26.28
2019-03-24T18:23:00.395Z,25.95
2019-03-24T18:25:28.718Z,26.54
2019-03-24T18:27:56.948Z,26.83
2019-03-24T18:30:26.271Z,27.38
2019-03-24T18:32:54.568Z,26.56
2019-03-24T18:35:22.907Z,26.59
2019-03-24T18:37:51.207Z,26.37
2019-03-24T18:40:20.836Z,27.21
2019-03-24T18:42:49.192Z,27.03
2019-03-24T18:45:17.770Z,27.81
2019-03-24T18:47:46.113Z,27.97
2019-03-24T18:50:14.516Z,27.73
2019-03-24T18:52:45.439Z,28.10
2019-03-24T18:55:14.380Z,27.87
2019-03-24T18:57:42.658Z,27.66
2019-03-24T19:00:12.757Z,27.89
2019-03-24T19:02:41.168Z,27.74
2019-03-24T19:05:09.595Z,27.95
2019-03-24T19:07:38.654Z,27.53
2019-03-24T19:10:09.191Z,26.82
2019-03-24T19:12:37.859Z,27.67
2019-03-24T19:15:09.374Z,26.99
2019-03-24T19:17:37.740Z,26.10
2019-03-24T19:20:07.713Z,27.06
2019-03-24T19:22:36.079Z,27.84
2019-03-24T19:25:06.580Z,26.49
2019-03-24T19:27:34.886Z,26.71
2019-03-24T19:30:04.206Z,26.25
2019-03-24T19:32:32.549Z,26.75
2019-03-24T19:35:00.826Z,26.32
2019-03-24T19:37:29.593Z,25.56
2019-03-24T19:39:57.879Z,26.77
2019-03-24T19:42:26.255Z,26.30
2019-03-24T19:44:54.574Z,26.23
2019-03-24T19:47:23.232Z,26.07
2019-03-24T19:49:51.536Z,26.58
2019-03-24T19:52:19.800Z,26.61
2019-03-24T19:54:48.070Z,26.26
2019-03-24T19:57:16.375Z,25.45
2019-03-24T19:59:44.647Z,25.55
2019-03-24T20:02:12.926Z,25.15
2019-03-24T20:04:41.224Z,25.22
2019-03-24T20:07:09.490Z,26.14
2019-03-24T20:09:37.848Z,25.73
2019-03-24T20:12:06.142Z,26.33
2019-03-24T20:14:34.438Z,26.34
2019-03-24T20:17:02.702Z,26.31
2019-03-24T20:19:30.999Z,26.69
2019-03-24T20:21:59.298Z,26.17
2019-03-24T20:24:27.618Z,25.95
2019-03-24T20:26:55.902Z,25.43
2019-03-24T20:29:24.203Z,25.45
2019-03-24T20:31:52.509Z,25.31
2019-03-24T20:34:20.770Z,25.26
2019-03-24T20:36:49.109Z,25.18
2019-03-24T20:39:17.366Z,23.99
2019-03-24T20:41:45.669Z,24.57
2019-03-24T20:44:13.967Z,24.57
2019-03-24T20:46:42.264Z,24.00
2019-03-24T20:49:10.555Z,23.25
2019-03-24T20:51:38.830Z,24.18
2019-03-24T20:54:07.114Z,23.80
2019-03-24T20:56:35.390Z,24.10
2019-03-24T20:59:03.677Z,24.42
2019-03-24T21:01:31.970Z,24.66
2019-03-24T21:04:00.291Z,25.07
2019-03-24T21:06:28.583Z,24.58
2019-03-24T21:08:56.860Z,25.46
2019-03-24T21:11:25.146Z,23.99
2019-03-24T21:13:53.489Z,25.25
2019-03-24T21:16:21.843Z,26.04
2019-03-24T21:18:51.190Z,25.75
2019-03-24T21:21:19.539Z,25.79
2019-03-24T21:23:47.805Z,25.39
2019-03-24T21:26:16.082Z,25.63
2019-03-24T21:28:44.367Z,25.19
2019-03-24T21:31:12.619Z,24.93
2019-03-24T21:33:40.906Z,24.41
2019-03-24T21:36:09.166Z,25.16
2019-03-24T21:38:37.469Z,24.75
2019-03-24T21:41:05.815Z,24.37
2019-03-24T21:43:34.104Z,24.43
2019-03-24T21:46:02.406Z,24.27
2019-03-24T21:48:30.670Z,24.73
2019-03-24T21:50:58.956Z,24.09
2019-03-24T21:53:27.236Z,25.04
2019-03-24T21:55:55.519Z,24.40
2019-03-24T21:58:23.788Z,24.17
2019-03-24T22:00:52.137Z,23.70
2019-03-24T22:03:20.417Z,23.73
2019-03-24T22:05:48.695Z,22.95
2019-03-24T22:08:16.993Z,23.15
2019-03-24T22:10:45.272Z,23.30
2019-03-24T22:13:13.567Z,23.89
2019-03-24T22:15:41.844Z,22.69
2019-03-24T22:18:10.137Z,23.12
2019-03-24T22:20:48.442Z,23.59
2019-03-24T22:23:08.445Z,23.35
2019-03-24T22:25:36.801Z,23.54
2019-03-24T22:28:05.098Z,23.55
2019-03-24T22:30:33.335Z,23.33
2019-03-24T22:33:01.608Z,23.18
2019-03-24T22:35:29.871Z,23.15
2019-03-24T22:37:59.989Z,22.91
2019-03-24T22:40:28.269Z,23.59
2019-03-24T22:42:56.550Z,23.18
2019-03-24T22:45:24.880Z,23.88
2019-03-24T22:47:53.213Z,23.61
2019-03-24T22:50:21.500Z,23.35
2019-03-24T22:52:49.773Z,23.37
2019-03-24T22:55:18.115Z,23.14
2019-03-24T22:57:46.453Z,24.14
2019-03-24T23:00:32.831Z,23.74
2019-03-24T23:03:01.251Z,23.33
2019-03-24T23:05:29.511Z,23.77
2019-03-24T23:07:57.783Z,23.52
2019-03-24T23:10:26.136Z,24.61
2019-03-24T23:12:54.861Z,23.77
2019-03-24T23:15:23.138Z,23.69
2019-03-24T23:17:51.417Z,23.89
2019-03-24T23:20:19.701Z,24.35
2019-03-24T23:22:47.986Z,24.17
2019-03-24T23:25:16.276Z,23.65
2019-03-24T23:27:44.555Z,24.11
2019-03-24T23:30:13.286Z,24.75
2019-03-24T23:32:41.564Z,24.37
2019-03-24T23:35:10.402Z,24.62
2019-03-24T23:37:38.677Z,23.13
2019-03-24T23:40:07.185Z,24.56
2019-03-24T23:42:37.372Z,22.63
2019-03-24T23:45:07.566Z,20.80
2019-03-24T23:47:35.841Z,22.69
2019-03-24T23:50:05.669Z,22.58
2019-03-24T23:52:33.944Z,22.27
2019-03-24T23:55:02.240Z,23.23
2019-03-24T23:57:30.555Z,23.16
2019-03-24T23:59:58.854Z,22.24
